createdAt,value
2022-08-20T00:00:30.119Z,25.00
2022-08-20T00:01:30.160Z,25.30
2022-08-20T00:02:30.080Z,25.50
2022-08-20T00:03:30.078Z,24.80
2022-08-20T00:04:30.063Z,25.10
2022-08-20T00:05:30.042Z,26.70
2022-08-20T00:06:30.042Z,22.40
2022-08-20T00:07:30.042Z,21.30
2022-08-20T00:08:30.015Z,22.90
2022-08-20T00:09:30.002Z,23.00
2022-08-20T00:10:29.975Z,22.70
2022-08-20T00:11:29.960Z,23.10
2022-08-20T00:12:29.954Z,24.00
2022-08-20T00:13:29.942Z,21.30
2022-08-20T00:14:29.925Z,22.90
2022-08-20T00:15:29.906Z,24.30
2022-08-20T00:16:29.916Z,22.90
2022-08-20T00:17:29.890Z,22.40
2022-08-20T00:18:29.889Z,23.00
2022-08-20T00:19:29.849Z,24.10
2022-08-20T00:20:29.851Z,24.40
2022-08-20T00:21:31.488Z,22.10
2022-08-20T00:22:29.829Z,24.40
2022-08-20T00:23:29.798Z,25.20
2022-08-20T00:24:29.797Z,24.40
2022-08-20T00:25:29.781Z,21.70
2022-08-20T00:26:29.779Z,23.70
2022-08-20T00:27:29.759Z,25.40
2022-08-20T00:28:29.766Z,24.60
2022-08-20T00:29:29.750Z,29.00
2022-08-20T00:30:29.724Z,26.30
2022-08-20T00:31:29.692Z,23.20
2022-08-20T00:32:29.693Z,27.20
2022-08-20T00:33:29.672Z,27.80
2022-08-20T00:34:29.658Z,26.70
2022-08-20T00:35:29.657Z,27.30
2022-08-20T00:36:32.899Z,27.60
2022-08-20T00:37:29.618Z,28.60
2022-08-20T00:38:29.613Z,27.20
2022-08-20T00:39:29.594Z,27.70
2022-08-20T00:40:29.574Z,28.90
2022-08-20T00:41:29.570Z,27.30
2022-08-20T00:42:29.546Z,28.10
2022-08-20T00:43:29.542Z,28.60
2022-08-20T00:44:29.524Z,29.30
2022-08-20T00:45:29.514Z,28.10
2022-08-20T00:46:31.734Z,27.80
2022-08-20T00:47:29.483Z,27.60
2022-08-20T00:48:29.459Z,32.00
2022-08-20T00:49:29.465Z,31.20
2022-08-20T00:50:29.438Z,28.30
2022-08-20T00:51:29.939Z,35.20
2022-08-20T00:52:29.418Z,29.30
2022-08-20T00:53:29.395Z,31.90
2022-08-20T00:54:29.472Z,34.50
2022-08-20T00:55:31.643Z,35.30
2022-08-20T00:56:29.390Z,29.70
2022-08-20T00:57:29.350Z,32.60
2022-08-20T00:59:32.243Z,33.50
2022-08-20T01:00:32.468Z,36.80
2022-08-20T01:01:32.159Z,40.50
2022-08-20T01:02:32.203Z,38.10
2022-08-20T01:03:31.928Z,36.80
2022-08-20T01:04:31.941Z,44.40
2022-08-20T01:05:31.941Z,35.30
2022-08-20T01:06:31.909Z,35.20
2022-08-20T01:07:31.880Z,34.70
2022-08-20T01:08:31.870Z,45.80
2022-08-20T01:09:50.170Z,38.90
2022-08-20T01:10:32.853Z,38.90
2022-08-20T01:11:41.420Z,41.40
2022-08-20T01:12:31.851Z,39.80
2022-08-20T01:13:31.920Z,39.20
2022-08-20T01:14:31.909Z,41.60
2022-08-20T01:15:31.965Z,40.40
2022-08-20T01:16:31.763Z,41.10
2022-08-20T01:17:31.776Z,41.10
2022-08-20T01:18:31.927Z,39.60
2022-08-20T01:19:31.893Z,39.70
2022-08-20T01:20:31.793Z,42.40
2022-08-20T01:21:31.751Z,44.40
2022-08-20T01:22:31.735Z,45.50
2022-08-20T01:23:31.735Z,36.50
2022-08-20T01:24:31.716Z,39.40
2022-08-20T01:25:31.750Z,35.90
2022-08-20T01:26:31.711Z,35.10
2022-08-20T01:27:31.714Z,32.00
2022-08-20T01:28:31.734Z,34.90
2022-08-20T01:29:31.847Z,35.30
2022-08-20T01:30:31.600Z,38.90
2022-08-20T01:31:31.633Z,35.80
2022-08-20T01:32:31.571Z,38.50
2022-08-20T01:33:31.602Z,48.40
2022-08-20T01:34:31.616Z,31.40
2022-08-20T01:35:31.548Z,25.30
2022-08-20T01:36:31.519Z,25.40
2022-08-20T01:37:31.883Z,24.20
2022-08-20T01:38:31.579Z,27.40
2022-08-20T01:39:31.729Z,26.30
2022-08-20T01:40:31.628Z,32.10
2022-08-20T01:41:31.464Z,33.20
2022-08-20T01:42:31.491Z,24.90
2022-08-20T01:43:32.211Z,24.30
2022-08-20T01:44:32.567Z,26.10
2022-08-20T01:45:31.553Z,21.90
2022-08-20T01:46:31.510Z,25.70
2022-08-20T01:47:31.411Z,54.90
2022-08-20T01:48:32.386Z,60.30
2022-08-20T01:49:31.485Z,48.70
2022-08-20T01:50:31.476Z,29.20
2022-08-20T01:51:31.356Z,36.50
2022-08-20T01:52:31.342Z,33.10
2022-08-20T01:53:31.512Z,24.50
2022-08-20T01:54:31.274Z,57.10
2022-08-20T01:55:31.362Z,33.40
2022-08-20T01:56:31.354Z,31.30
2022-08-20T01:57:31.424Z,56.00
2022-08-20T01:58:31.365Z,104.80
2022-08-20T01:59:31.337Z,38.80
2022-08-20T02:00:31.313Z,35.90
2022-08-20T02:01:31.334Z,85.20
2022-08-20T02:02:31.391Z,59.40
2022-08-20T02:03:36.552Z,34.90
2022-08-20T02:04:32.146Z,37.70
2022-08-20T02:05:31.297Z,33.60
2022-08-20T02:06:31.201Z,32.40
2022-08-20T02:07:31.233Z,29.10
2022-08-20T02:08:31.109Z,30.80
2022-08-20T02:09:31.212Z,34.00
2022-08-20T02:10:31.638Z,62.20
2022-08-20T02:11:31.140Z,53.30
2022-08-20T02:12:31.081Z,45.70
2022-08-20T02:13:31.203Z,34.00
2022-08-20T02:14:31.052Z,36.10
2022-08-20T02:15:37.530Z,26.80
2022-08-20T02:16:32.087Z,35.70
2022-08-20T02:17:31.032Z,25.80
2022-08-20T02:18:31.049Z,25.40
2022-08-20T02:19:30.941Z,22.70
2022-08-20T02:20:31.081Z,24.90
2022-08-20T02:21:30.923Z,22.70
2022-08-20T02:22:31.129Z,23.80
2022-08-20T02:23:30.866Z,20.10
2022-08-20T02:24:30.862Z,20.70
2022-08-20T02:25:30.955Z,23.10
2022-08-20T02:26:30.875Z,23.60
2022-08-20T02:27:30.913Z,17.80
2022-08-20T02:28:30.834Z,17.50
2022-08-20T02:29:30.893Z,16.30
2022-08-20T02:30:30.867Z,16.90
2022-08-20T02:31:34.825Z,18.20
2022-08-20T02:32:34.396Z,17.30
2022-08-20T02:33:30.789Z,15.90
2022-08-20T02:34:30.794Z,16.50
2022-08-20T02:35:30.792Z,21.30
2022-08-20T02:36:30.818Z,21.20
2022-08-20T02:37:30.755Z,16.60
2022-08-20T02:38:30.739Z,17.00
2022-08-20T02:39:30.761Z,15.50
2022-08-20T02:40:31.451Z,16.40
2022-08-20T02:41:30.677Z,15.70
2022-08-20T02:42:30.881Z,17.20
2022-08-20T02:43:30.684Z,14.20
2022-08-20T02:44:30.765Z,17.10
2022-08-20T02:45:30.697Z,16.60
2022-08-20T02:46:30.595Z,17.40
2022-08-20T02:47:30.516Z,15.40
2022-08-20T02:48:30.588Z,24.60
2022-08-20T02:49:30.628Z,14.60
2022-08-20T02:50:30.719Z,15.10
2022-08-20T02:51:31.598Z,21.40
2022-08-20T02:52:30.560Z,16.80
2022-08-20T02:53:30.508Z,16.60
2022-08-20T02:54:30.569Z,16.00
2022-08-20T02:55:30.508Z,14.30
2022-08-20T02:56:30.431Z,15.50
2022-08-20T02:57:30.371Z,15.90
2022-08-20T02:58:30.512Z,17.70
2022-08-20T02:59:30.480Z,14.00
2022-08-20T03:00:30.320Z,14.50
2022-08-20T03:01:31.449Z,14.80
2022-08-20T03:02:30.490Z,15.70
2022-08-20T03:03:30.396Z,17.20
2022-08-20T03:04:30.366Z,18.90
2022-08-20T03:05:30.337Z,29.60
2022-08-20T03:06:30.369Z,40.20
2022-08-20T03:07:30.298Z,21.40
2022-08-20T03:08:30.331Z,20.40
2022-08-20T03:09:30.367Z,34.30
2022-08-20T03:10:30.769Z,35.60
2022-08-20T03:11:30.564Z,38.70
2022-08-20T03:12:35.079Z,33.40
2022-08-20T03:13:32.169Z,26.10
2022-08-20T03:14:30.820Z,24.60
2022-08-20T03:15:35.387Z,30.00
2022-08-20T03:16:30.748Z,31.30
2022-08-20T03:17:30.916Z,27.80
2022-08-20T03:18:31.493Z,25.40
2022-08-20T03:19:30.860Z,26.40
2022-08-20T03:20:30.579Z,24.20
2022-08-20T03:21:34.130Z,29.30
2022-08-20T03:22:30.856Z,30.20
2022-08-20T03:23:30.669Z,39.00
2022-08-20T03:24:31.064Z,43.40
2022-08-20T03:25:30.841Z,42.10
2022-08-20T03:26:37.538Z,46.10
2022-08-20T03:27:31.244Z,44.50
2022-08-20T03:28:31.030Z,45.20
2022-08-20T03:29:29.936Z,29.40
2022-08-20T03:30:29.942Z,38.50
2022-08-20T03:31:29.910Z,45.80
2022-08-20T03:32:29.905Z,47.90
2022-08-20T03:33:29.910Z,50.80
2022-08-20T03:34:29.870Z,33.80
2022-08-20T03:35:29.885Z,44.10
2022-08-20T03:36:29.855Z,45.10
2022-08-20T03:37:29.849Z,38.10
2022-08-20T03:38:33.134Z,48.10
2022-08-20T03:39:29.803Z,89.40
2022-08-20T03:40:29.840Z,92.00
2022-08-20T03:41:29.782Z,45.40
2022-08-20T03:42:29.760Z,69.20
2022-08-20T03:43:29.777Z,127.00
2022-08-20T03:44:29.760Z,53.00
2022-08-20T03:45:29.752Z,43.50
2022-08-20T03:46:29.704Z,39.80
2022-08-20T03:47:29.701Z,35.10
2022-08-20T03:48:29.692Z,43.30
2022-08-20T03:49:29.671Z,52.40
2022-08-20T03:50:29.662Z,40.50
2022-08-20T03:51:29.697Z,56.70
2022-08-20T03:52:29.619Z,48.10
2022-08-20T03:53:29.631Z,46.60
2022-08-20T03:54:32.122Z,39.20
2022-08-20T03:55:29.604Z,41.00
2022-08-20T03:56:29.606Z,35.60
2022-08-20T03:57:29.601Z,34.10
2022-08-20T03:58:31.572Z,36.10
2022-08-20T03:59:30.543Z,31.40
2022-08-20T04:00:29.517Z,33.30
2022-08-20T04:01:37.164Z,35.40
2022-08-20T04:02:30.520Z,40.60
2022-08-20T04:03:29.479Z,37.40
2022-08-20T04:04:29.467Z,30.50
2022-08-20T04:05:29.452Z,34.20
2022-08-20T04:06:29.460Z,36.80
2022-08-20T04:07:29.434Z,45.00
2022-08-20T04:08:29.477Z,106.50
2022-08-20T04:09:29.411Z,169.80
2022-08-20T04:10:29.388Z,85.30
2022-08-20T04:11:29.375Z,75.60
2022-08-20T04:12:29.350Z,57.70
2022-08-20T04:13:29.376Z,71.60
2022-08-20T04:14:30.029Z,82.30
2022-08-20T04:15:29.346Z,94.20
2022-08-20T04:16:29.297Z,65.00
2022-08-20T04:17:29.289Z,57.60
2022-08-20T04:18:29.270Z,40.10
2022-08-20T04:19:34.125Z,71.90
2022-08-20T04:20:30.282Z,88.90
2022-08-20T04:21:32.996Z,124.10
2022-08-20T04:22:29.254Z,117.80
2022-08-20T04:23:29.257Z,59.60
2022-08-20T04:24:32.475Z,90.30
2022-08-20T04:25:29.585Z,104.90
2022-08-20T04:26:29.203Z,88.30
2022-08-20T04:27:29.154Z,73.30
2022-08-20T04:28:29.170Z,57.60
2022-08-20T04:29:32.280Z,105.60
2022-08-20T04:30:29.173Z,63.30
2022-08-20T04:31:29.110Z,72.70
2022-08-20T04:32:29.136Z,83.20
2022-08-20T04:33:33.493Z,66.10
2022-08-20T04:34:30.072Z,81.30
2022-08-20T04:35:29.061Z,59.40
2022-08-20T04:36:29.049Z,49.50
2022-08-20T04:37:29.067Z,52.40
2022-08-20T04:38:49.414Z,50.60
2022-08-20T04:39:30.016Z,49.40
2022-08-20T04:40:28.988Z,108.00
2022-08-20T04:41:28.984Z,107.00
2022-08-20T04:42:28.985Z,88.60
2022-08-20T04:43:28.943Z,76.30
2022-08-20T04:44:28.925Z,63.00
2022-08-20T04:45:28.964Z,86.00
2022-08-20T04:46:29.167Z,70.90
2022-08-20T04:47:34.728Z,68.80
2022-08-20T04:48:29.916Z,77.70
2022-08-20T04:49:28.871Z,83.30
2022-08-20T04:50:28.854Z,57.50
2022-08-20T04:51:28.854Z,60.30
2022-08-20T04:52:28.818Z,62.70
2022-08-20T04:53:28.812Z,55.40
2022-08-20T04:54:28.818Z,64.00
2022-08-20T04:55:28.786Z,57.70
2022-08-20T04:56:28.789Z,111.70
2022-08-20T04:57:28.777Z,66.30
2022-08-20T04:58:28.737Z,58.40
2022-08-20T04:59:28.725Z,50.70
2022-08-20T05:00:28.728Z,55.50
2022-08-20T05:01:28.820Z,66.50
2022-08-20T05:02:28.698Z,67.60
2022-08-20T05:03:28.695Z,66.50
2022-08-20T05:04:28.649Z,77.40
2022-08-20T05:05:28.639Z,85.30
2022-08-20T05:06:28.685Z,66.40
2022-08-20T05:07:28.634Z,77.70
2022-08-20T05:08:28.589Z,64.50
2022-08-20T05:09:28.587Z,77.20
2022-08-20T05:10:28.617Z,72.10
2022-08-20T05:11:35.375Z,189.20
2022-08-20T05:12:29.760Z,93.20
2022-08-20T05:13:28.558Z,132.30
2022-08-20T05:14:28.530Z,84.40
2022-08-20T05:15:28.538Z,52.70
2022-08-20T05:16:28.504Z,56.10
2022-08-20T05:17:28.549Z,89.70
2022-08-20T05:18:28.477Z,51.90
2022-08-20T05:19:28.495Z,57.20
2022-08-20T05:20:28.446Z,57.60
2022-08-20T05:21:28.433Z,82.10
2022-08-20T05:22:31.016Z,51.60
2022-08-20T05:23:28.405Z,58.30
2022-08-20T05:24:28.405Z,48.70
2022-08-20T05:25:28.447Z,57.20
2022-08-20T05:26:28.354Z,54.20
2022-08-20T05:27:28.343Z,49.00
2022-08-20T05:28:28.336Z,45.70
2022-08-20T05:29:28.323Z,47.00
2022-08-20T05:30:28.337Z,48.70
2022-08-20T05:31:31.924Z,57.00
2022-08-20T05:32:28.288Z,48.00
2022-08-20T05:33:28.259Z,109.60
2022-08-20T05:34:28.249Z,44.80
2022-08-20T05:35:28.239Z,40.30
2022-08-20T05:36:28.231Z,42.90
2022-08-20T05:37:28.230Z,48.20
2022-08-20T05:38:28.203Z,47.90
2022-08-20T05:39:28.174Z,42.20
2022-08-20T05:40:28.173Z,42.10
2022-08-20T05:41:29.682Z,42.90
2022-08-20T05:42:28.139Z,62.90
2022-08-20T05:43:28.135Z,170.30
2022-08-20T05:44:28.116Z,164.70
2022-08-20T05:45:28.093Z,159.70
2022-08-20T05:46:28.104Z,112.40
2022-08-20T05:47:28.089Z,122.10
2022-08-20T05:48:28.089Z,205.40
2022-08-20T05:49:28.024Z,104.50
2022-08-20T05:50:28.068Z,73.20
2022-08-20T05:51:28.018Z,79.10
2022-08-20T05:52:28.023Z,91.00
2022-08-20T05:53:27.990Z,123.20
2022-08-20T05:54:27.977Z,73.20
2022-08-20T05:55:27.968Z,89.80
2022-08-20T05:56:27.988Z,73.80
2022-08-20T05:57:27.941Z,62.60
2022-08-20T05:58:27.909Z,61.20
2022-08-20T05:59:27.897Z,71.00
2022-08-20T06:00:27.948Z,75.00
2022-08-20T06:01:27.905Z,62.20
2022-08-20T06:02:27.888Z,62.50
2022-08-20T06:03:27.878Z,55.40
2022-08-20T06:04:27.856Z,48.40
2022-08-20T06:05:27.830Z,74.10
2022-08-20T06:06:44.917Z,159.70
2022-08-20T06:07:28.848Z,100.80
2022-08-20T06:08:27.789Z,90.50
2022-08-20T06:09:30.885Z,142.00
2022-08-20T06:10:27.783Z,96.70
2022-08-20T06:11:27.744Z,54.30
2022-08-20T06:12:27.749Z,77.70
2022-08-20T06:13:27.728Z,69.80
2022-08-20T06:14:27.714Z,55.70
2022-08-20T06:15:27.683Z,62.40
2022-08-20T06:16:29.154Z,48.50
2022-08-20T06:17:27.709Z,53.50
2022-08-20T06:18:29.017Z,54.10
2022-08-20T06:19:32.111Z,65.10
2022-08-20T06:20:28.626Z,60.90
2022-08-20T06:21:27.693Z,59.00
2022-08-20T06:22:27.603Z,55.10
2022-08-20T06:23:27.594Z,56.90
2022-08-20T06:24:28.587Z,63.00
2022-08-20T06:25:27.560Z,50.90
2022-08-20T06:26:29.968Z,50.80
2022-08-20T06:27:27.551Z,47.20
2022-08-20T06:28:27.507Z,42.20
2022-08-20T06:29:27.489Z,44.30
2022-08-20T06:30:27.557Z,47.10
2022-08-20T06:31:27.690Z,45.80
2022-08-20T06:32:31.993Z,42.50
2022-08-20T06:33:28.448Z,37.90
2022-08-20T06:34:27.461Z,41.00
2022-08-20T06:35:27.429Z,42.60
2022-08-20T06:36:27.424Z,46.10
2022-08-20T06:37:28.218Z,41.10
2022-08-20T06:38:27.378Z,39.90
2022-08-20T06:39:27.361Z,38.90
2022-08-20T06:40:27.378Z,40.60
2022-08-20T06:41:36.088Z,37.90
2022-08-20T06:42:28.452Z,42.80
2022-08-20T06:43:27.326Z,41.50
2022-08-20T06:44:27.296Z,38.00
2022-08-20T06:45:27.304Z,37.60
2022-08-20T06:46:27.311Z,38.40
2022-08-20T06:47:27.240Z,35.50
2022-08-20T06:48:27.263Z,36.30
2022-08-20T06:49:27.222Z,36.80
2022-08-20T06:50:27.228Z,36.10
2022-08-20T06:51:27.187Z,36.80
2022-08-20T06:52:51.633Z,33.80
2022-08-20T06:53:28.184Z,40.40
2022-08-20T06:54:28.668Z,51.00
2022-08-20T06:55:27.137Z,37.70
2022-08-20T06:56:27.148Z,32.10
2022-08-20T06:57:27.118Z,33.40
2022-08-20T06:58:37.448Z,30.10
2022-08-20T06:59:28.088Z,34.00
2022-08-20T07:00:37.153Z,35.40
2022-08-20T07:01:27.165Z,32.40
2022-08-20T07:02:29.196Z,31.20
2022-08-20T07:03:27.019Z,36.60
2022-08-20T07:04:27.006Z,36.00
2022-08-20T07:05:26.999Z,35.00
2022-08-20T07:06:26.989Z,29.00
2022-08-20T07:07:26.966Z,29.90
2022-08-20T07:08:26.991Z,34.10
2022-08-20T07:09:26.937Z,33.00
2022-08-20T07:10:26.932Z,32.50
2022-08-20T07:11:28.514Z,30.20
2022-08-20T07:12:26.932Z,28.40
2022-08-20T07:13:26.990Z,32.60
2022-08-20T07:14:26.896Z,32.50
2022-08-20T07:15:26.894Z,33.90
2022-08-20T07:16:26.857Z,34.30
2022-08-20T07:17:26.833Z,33.90
2022-08-20T07:18:28.507Z,26.60
2022-08-20T07:19:26.828Z,28.70
2022-08-20T07:20:26.785Z,34.00
2022-08-20T07:21:26.798Z,30.30
2022-08-20T07:22:26.786Z,24.60
2022-08-20T07:23:26.774Z,25.00
2022-08-20T07:24:26.742Z,25.10
2022-08-20T07:25:27.727Z,25.70
2022-08-20T07:26:26.713Z,25.10
2022-08-20T07:27:26.718Z,26.60
2022-08-20T07:28:26.678Z,23.70
2022-08-20T07:29:26.670Z,23.20
2022-08-20T07:30:26.666Z,21.20
2022-08-20T07:31:26.965Z,23.30
2022-08-20T07:32:28.954Z,21.80
2022-08-20T07:33:28.337Z,23.90
2022-08-20T07:34:26.610Z,21.20
2022-08-20T07:35:26.581Z,21.50
2022-08-20T07:36:26.572Z,23.20
2022-08-20T07:37:26.561Z,19.90
2022-08-20T07:38:26.545Z,19.30
2022-08-20T07:39:28.371Z,19.80
2022-08-20T07:40:26.610Z,20.40
2022-08-20T07:41:26.511Z,19.50
2022-08-20T07:42:26.524Z,20.90
2022-08-20T07:43:26.467Z,20.50
2022-08-20T07:44:31.073Z,20.20
2022-08-20T07:45:26.468Z,17.90
2022-08-20T07:46:31.107Z,18.10
2022-08-20T07:47:27.436Z,17.50
2022-08-20T07:48:31.245Z,17.00
2022-08-20T07:49:27.386Z,18.10
2022-08-20T07:50:26.398Z,18.10
2022-08-20T07:51:26.366Z,16.20
2022-08-20T07:52:26.358Z,17.50
2022-08-20T07:53:26.367Z,15.60
2022-08-20T07:54:26.401Z,15.40
2022-08-20T07:55:26.310Z,14.70
2022-08-20T07:56:26.322Z,14.50
2022-08-20T07:57:26.280Z,13.90
2022-08-20T07:58:31.877Z,14.40
2022-08-20T07:59:27.260Z,14.60
2022-08-20T08:00:26.248Z,13.90
2022-08-20T08:01:26.389Z,14.60
2022-08-20T08:02:26.242Z,14.70
2022-08-20T08:03:40.702Z,14.90
2022-08-20T08:04:27.193Z,14.50
2022-08-20T08:05:26.173Z,13.60
2022-08-20T08:06:29.198Z,13.20
2022-08-20T08:07:26.201Z,12.90
2022-08-20T08:08:26.185Z,13.20
2022-08-20T08:09:26.178Z,13.20
2022-08-20T08:10:26.116Z,13.10
2022-08-20T08:11:26.134Z,12.70
2022-08-20T08:12:26.085Z,12.30
2022-08-20T08:13:26.077Z,11.30
2022-08-20T08:14:26.060Z,11.00
2022-08-20T08:15:26.046Z,10.10
2022-08-20T08:16:26.038Z,11.30
2022-08-20T08:17:26.059Z,12.00
2022-08-20T08:18:28.859Z,10.70
2022-08-20T08:19:26.988Z,11.40
2022-08-20T08:20:25.969Z,10.50
2022-08-20T08:21:25.980Z,10.40
2022-08-20T08:22:25.949Z,9.80
2022-08-20T08:23:31.917Z,8.30
2022-08-20T08:24:28.557Z,8.30
2022-08-20T08:25:25.921Z,8.10
2022-08-20T08:26:25.890Z,8.30
2022-08-20T08:27:25.891Z,8.50
2022-08-20T08:28:25.872Z,9.50
2022-08-20T08:29:25.896Z,8.80
2022-08-20T08:30:25.923Z,9.50
2022-08-20T08:31:26.501Z,10.30
2022-08-20T08:32:25.865Z,10.00
2022-08-20T08:33:26.084Z,10.80
2022-08-20T08:34:25.826Z,10.40
2022-08-20T08:35:25.794Z,10.80
2022-08-20T08:36:25.752Z,10.90
2022-08-20T08:37:30.084Z,11.40
2022-08-20T08:38:25.729Z,11.50
2022-08-20T08:39:25.725Z,16.90
2022-08-20T08:40:26.708Z,20.80
2022-08-20T08:41:25.706Z,21.80
2022-08-20T08:42:25.673Z,22.20
2022-08-20T08:43:25.668Z,24.20
2022-08-20T08:44:26.686Z,27.40
2022-08-20T08:45:25.678Z,30.50
2022-08-20T08:46:25.640Z,31.20
2022-08-20T08:47:25.608Z,31.40
2022-08-20T08:48:25.642Z,32.00
2022-08-20T08:49:25.589Z,29.80
2022-08-20T08:50:50.072Z,32.60
2022-08-20T08:51:26.574Z,31.20
2022-08-20T08:52:25.536Z,32.80
2022-08-20T08:53:25.522Z,31.80
2022-08-20T08:54:25.552Z,30.50
2022-08-20T08:55:25.526Z,29.60
2022-08-20T08:56:25.545Z,27.70
2022-08-20T08:57:25.493Z,28.40
2022-08-20T08:58:25.533Z,29.40
2022-08-20T08:59:25.444Z,28.60
2022-08-20T09:00:26.437Z,27.60
2022-08-20T09:01:56.621Z,26.50
2022-08-20T09:02:26.504Z,26.50
2022-08-20T09:03:25.426Z,26.40
2022-08-20T09:04:25.386Z,25.30
2022-08-20T09:05:25.355Z,27.70
2022-08-20T09:06:25.350Z,26.80
2022-08-20T09:07:25.338Z,25.70
2022-08-20T09:08:25.381Z,27.70
2022-08-20T09:09:25.308Z,27.10
2022-08-20T09:10:25.299Z,27.00
2022-08-20T09:11:25.425Z,28.00
2022-08-20T09:12:25.441Z,26.40
2022-08-20T09:13:25.355Z,25.80
2022-08-20T09:14:25.306Z,26.70
2022-08-20T09:15:25.304Z,25.20
2022-08-20T09:16:25.550Z,25.90
2022-08-20T09:17:25.257Z,27.10
2022-08-20T09:18:25.199Z,29.30
2022-08-20T09:19:25.201Z,28.50
2022-08-20T09:20:27.026Z,28.00
2022-08-20T09:21:25.163Z,28.40
2022-08-20T09:22:25.129Z,28.40
2022-08-20T09:23:25.124Z,27.20
2022-08-20T09:24:25.108Z,26.50
2022-08-20T09:25:25.095Z,25.50
2022-08-20T09:26:25.095Z,27.00
2022-08-20T09:27:25.055Z,24.50
2022-08-20T09:28:25.045Z,25.10
2022-08-20T09:29:26.067Z,25.50
2022-08-20T09:30:25.016Z,24.80
2022-08-20T09:31:25.022Z,24.40
2022-08-20T09:32:35.030Z,24.50
2022-08-20T09:33:35.028Z,24.00
2022-08-20T09:34:41.978Z,21.80
2022-08-20T09:35:24.969Z,26.40
2022-08-20T09:36:31.836Z,22.50
2022-08-20T09:37:25.997Z,23.80
2022-08-20T09:38:24.935Z,22.10
2022-08-20T09:39:24.920Z,22.70
2022-08-20T09:40:24.973Z,22.30
2022-08-20T09:41:24.892Z,20.60
2022-08-20T09:42:24.894Z,21.20
2022-08-20T09:43:24.864Z,21.80
2022-08-20T09:44:24.865Z,21.90
2022-08-20T09:45:24.837Z,22.90
2022-08-20T09:46:27.491Z,21.90
2022-08-20T09:47:24.839Z,21.90
2022-08-20T09:48:31.878Z,22.40
2022-08-20T09:49:25.766Z,22.20
2022-08-20T09:50:24.769Z,22.20
2022-08-20T09:51:24.756Z,22.20
2022-08-20T09:52:24.731Z,22.00
2022-08-20T09:53:24.738Z,21.20
2022-08-20T09:54:24.709Z,20.80
2022-08-20T09:55:24.690Z,21.30
2022-08-20T09:56:24.692Z,20.40
2022-08-20T09:57:24.683Z,20.30
2022-08-20T09:58:24.689Z,19.70
2022-08-20T09:59:24.669Z,18.70
2022-08-20T10:00:24.632Z,19.20
2022-08-20T10:01:24.719Z,18.50
2022-08-20T10:02:24.614Z,19.10
2022-08-20T10:03:24.614Z,19.30
2022-08-20T10:04:24.592Z,19.30
2022-08-20T10:05:24.596Z,20.10
2022-08-20T10:06:24.565Z,19.40
2022-08-20T10:07:24.565Z,18.80
2022-08-20T10:08:24.560Z,18.70
2022-08-20T10:09:24.504Z,18.40
2022-08-20T10:10:24.502Z,18.40
2022-08-20T10:11:24.488Z,18.00
2022-08-20T10:12:24.474Z,18.70
2022-08-20T10:13:24.455Z,17.70
2022-08-20T10:14:24.438Z,18.50
2022-08-20T10:15:24.432Z,18.30
2022-08-20T10:16:24.473Z,17.50
2022-08-20T10:17:24.425Z,18.60
2022-08-20T10:18:24.389Z,18.80
2022-08-20T10:19:24.382Z,18.80
2022-08-20T10:20:24.373Z,18.40
2022-08-20T10:21:24.360Z,19.40
2022-08-20T10:22:24.340Z,18.40
2022-08-20T10:23:24.390Z,20.00
2022-08-20T10:24:24.331Z,19.20
2022-08-20T10:25:24.317Z,18.30
2022-08-20T10:26:24.318Z,18.80
2022-08-20T10:27:24.311Z,18.90
2022-08-20T10:28:24.253Z,18.10
2022-08-20T10:29:24.265Z,17.20
2022-08-20T10:30:24.235Z,17.90
2022-08-20T10:31:24.247Z,18.40
2022-08-20T10:32:24.273Z,18.40
2022-08-20T10:33:24.203Z,19.30
2022-08-20T10:34:24.199Z,18.90
2022-08-20T10:35:24.168Z,19.20
2022-08-20T10:36:24.173Z,19.40
2022-08-20T10:37:24.158Z,19.60
2022-08-20T10:38:24.119Z,19.70
2022-08-20T10:39:24.112Z,21.20
2022-08-20T10:40:24.289Z,20.10
2022-08-20T10:41:24.067Z,21.50
2022-08-20T10:42:24.087Z,20.60
2022-08-20T10:43:24.110Z,20.90
2022-08-20T10:44:24.046Z,19.40
2022-08-20T10:45:24.019Z,18.70
2022-08-20T10:46:24.006Z,20.20
2022-08-20T10:47:24.068Z,20.80
2022-08-20T10:48:24.005Z,17.80
2022-08-20T10:49:24.024Z,18.90
2022-08-20T10:50:23.990Z,19.30
2022-08-20T10:51:32.800Z,17.90
2022-08-20T10:52:24.931Z,17.40
2022-08-20T10:53:23.951Z,16.90
2022-08-20T10:54:23.925Z,16.10
2022-08-20T10:55:23.906Z,17.50
2022-08-20T10:56:23.869Z,16.90
2022-08-20T10:57:23.973Z,18.20
2022-08-20T10:58:24.145Z,17.00
2022-08-20T10:59:23.856Z,16.40
2022-08-20T11:00:23.835Z,17.80
2022-08-20T11:01:32.956Z,18.00
2022-08-20T11:02:24.895Z,18.70
2022-08-20T11:03:23.791Z,17.60
2022-08-20T11:04:23.782Z,18.60
2022-08-20T11:05:23.754Z,16.50
2022-08-20T11:06:23.942Z,16.40
2022-08-20T11:07:55.375Z,15.20
2022-08-20T11:08:33.240Z,14.30
2022-08-20T11:09:24.741Z,13.30
2022-08-20T11:10:23.693Z,14.80
2022-08-20T11:11:23.697Z,14.40
2022-08-20T11:12:23.664Z,14.20
2022-08-20T11:13:23.665Z,17.50
2022-08-20T11:14:23.637Z,15.10
2022-08-20T11:15:23.608Z,14.70
2022-08-20T11:16:23.672Z,17.30
2022-08-20T11:17:23.603Z,16.60
2022-08-20T11:18:23.647Z,15.80
2022-08-20T11:19:23.574Z,16.00
2022-08-20T11:20:23.574Z,15.10
2022-08-20T11:21:23.568Z,15.00
2022-08-20T11:22:23.604Z,15.60
2022-08-20T11:23:23.510Z,14.70
2022-08-20T11:24:23.510Z,14.30
2022-08-20T11:25:23.483Z,13.90
2022-08-20T11:26:23.487Z,13.50
2022-08-20T11:27:23.471Z,14.40
2022-08-20T11:28:31.769Z,14.90
2022-08-20T11:29:24.441Z,14.80
2022-08-20T11:30:23.424Z,13.80
2022-08-20T11:31:23.404Z,15.40
2022-08-20T11:32:23.463Z,15.50
2022-08-20T11:33:23.396Z,17.50
2022-08-20T11:34:23.396Z,15.30
2022-08-20T11:36:24.388Z,16.00
2022-08-20T11:37:23.313Z,16.10
2022-08-20T11:38:23.340Z,15.30
2022-08-20T11:39:23.419Z,14.60
2022-08-20T11:40:23.332Z,16.30
2022-08-20T11:41:23.286Z,15.40
2022-08-20T11:42:23.255Z,15.30
2022-08-20T11:43:23.266Z,13.40
2022-08-20T11:44:23.265Z,15.30
2022-08-20T11:45:23.224Z,14.50
2022-08-20T11:46:26.665Z,17.00
2022-08-20T11:47:24.194Z,16.20
2022-08-20T11:48:23.207Z,17.30
2022-08-20T11:49:23.171Z,19.60
2022-08-20T11:50:23.201Z,16.40
2022-08-20T11:51:23.131Z,14.50
2022-08-20T11:52:23.130Z,13.30
2022-08-20T11:53:23.195Z,14.00
2022-08-20T11:54:23.095Z,14.00
2022-08-20T11:55:23.075Z,16.30
2022-08-20T11:56:24.174Z,12.60
2022-08-20T11:57:23.076Z,12.20
2022-08-20T11:58:23.075Z,13.30
2022-08-20T11:59:23.072Z,15.30
2022-08-20T12:00:32.351Z,15.60
2022-08-20T12:01:24.027Z,14.90
2022-08-20T12:02:23.015Z,13.70
2022-08-20T12:03:23.090Z,13.60
2022-08-20T12:04:22.992Z,14.90
2022-08-20T12:05:22.945Z,13.70
2022-08-20T12:06:22.971Z,13.20
2022-08-20T12:07:22.961Z,15.10
2022-08-20T12:08:26.466Z,13.70
2022-08-20T12:09:24.903Z,12.40
2022-08-20T12:10:22.984Z,14.50
2022-08-20T12:11:22.861Z,13.60
2022-08-20T12:12:22.860Z,13.10
2022-08-20T12:13:23.652Z,12.70
2022-08-20T12:14:23.822Z,13.80
2022-08-20T12:15:22.811Z,15.70
2022-08-20T12:16:22.814Z,14.60
2022-08-20T12:17:22.816Z,13.20
2022-08-20T12:18:22.795Z,14.20
2022-08-20T12:19:22.784Z,14.30
2022-08-20T12:20:22.748Z,13.50
2022-08-20T12:21:22.749Z,13.30
2022-08-20T12:22:25.006Z,16.10
2022-08-20T12:23:22.747Z,15.30
2022-08-20T12:24:22.708Z,14.50
2022-08-20T12:25:22.671Z,14.60
2022-08-20T12:26:22.678Z,13.90
2022-08-20T12:27:22.661Z,12.70
2022-08-20T12:28:25.944Z,14.20
2022-08-20T12:29:22.613Z,13.40
2022-08-20T12:30:22.620Z,13.50
2022-08-20T12:31:22.605Z,14.00
2022-08-20T12:32:22.628Z,14.20
2022-08-20T12:33:22.592Z,13.20
2022-08-20T12:34:22.553Z,14.30
2022-08-20T12:35:22.540Z,14.60
2022-08-20T12:36:22.542Z,14.00
2022-08-20T12:37:22.507Z,6.60
2022-08-20T12:38:22.531Z,6.30
2022-08-20T12:39:22.473Z,4.80
2022-08-20T12:40:30.589Z,5.30
2022-08-20T12:41:23.480Z,5.00
2022-08-20T12:42:22.455Z,6.70
2022-08-20T12:43:25.024Z,4.20
2022-08-20T12:44:22.426Z,5.40
2022-08-20T12:45:22.402Z,4.80
2022-08-20T12:46:22.388Z,6.10
2022-08-20T12:47:22.395Z,5.40
2022-08-20T12:48:22.397Z,3.70
2022-08-20T12:49:22.347Z,5.40
2022-08-20T12:50:22.363Z,4.50
2022-08-20T12:51:22.318Z,5.50
2022-08-20T12:52:22.359Z,5.40
2022-08-20T12:53:22.282Z,4.60
2022-08-20T12:54:22.299Z,4.50